createdAt,value
2019-03-25T00:00:57.534Z,24.9
2019-03-25T00:04:03.400Z,24.9
2019-03-25T00:07:09.453Z,24.9
2019-03-25T00:10:15.417Z,24.9
2019-03-25T00:13:21.373Z,25
2019-03-25T00:16:27.335Z,25
2019-03-25T00:19:33.252Z,25
2019-03-25T00:22:39.362Z,25
2019-03-25T00:25:45.418Z,25
2019-03-25T00:28:51.377Z,25
2019-03-25T00:31:57.337Z,25.1
2019-03-25T00:35:03.298Z,25.1
2019-03-25T00:38:11.705Z,25.1
2019-03-25T00:41:17.778Z,25.1
2019-03-25T00:44:23.739Z,25.1
2019-03-25T00:47:29.699Z,25.2
2019-03-25T00:50:35.633Z,25.2
2019-03-25T00:53:41.619Z,25.2
2019-03-25T00:56:47.498Z,25.1
2019-03-25T00:59:53.434Z,25.2
2019-03-25T01:02:59.393Z,25.2
2019-03-25T01:06:05.457Z,25
2019-03-25T01:09:11.417Z,24.9
2019-03-25T01:12:17.378Z,24.8
2019-03-25T01:15:23.241Z,24.8
2019-03-25T01:18:30.330Z,24.8
2019-03-25T01:21:36.306Z,24.7
2019-03-25T01:24:42.349Z,24.7
2019-03-25T01:27:48.225Z,24.6
2019-03-25T01:30:54.261Z,24.6
2019-03-25T01:34:00.224Z,24.6
2019-03-25T01:37:06.184Z,24.6
2019-03-25T01:40:12.059Z,24.5
2019-03-25T01:43:18.057Z,24.5
2019-03-25T01:46:23.958Z,24.5
2019-03-25T01:49:29.919Z,24.5
2019-03-25T01:52:35.837Z,24.5
2019-03-25T01:55:41.836Z,24.5
2019-03-25T01:58:47.796Z,24.5
2019-03-25T02:01:53.755Z,24.5
2019-03-25T02:04:59.630Z,24.5
2019-03-25T02:08:05.777Z,24.5
2019-03-25T02:11:11.668Z,24.5
2019-03-25T02:14:17.595Z,24.6
2019-03-25T02:17:23.554Z,24.5
2019-03-25T02:20:29.515Z,24.5
2019-03-25T02:23:35.481Z,24.5
2019-03-25T02:26:41.440Z,24.4
2019-03-25T02:29:47.402Z,24.4
2019-03-25T02:32:53.313Z,24.4
2019-03-25T02:35:59.192Z,24.4
2019-03-25T02:39:05.192Z,24.4
2019-03-25T02:42:11.246Z,24.4
2019-03-25T02:45:17.198Z,24.3
2019-03-25T02:48:23.157Z,24.4
2019-03-25T02:51:29.113Z,24.4
2019-03-25T02:54:35.062Z,24.3
2019-03-25T02:57:41.238Z,24.3
2019-03-25T03:00:47.307Z,24.3
2019-03-25T03:03:53.470Z,24.3
2019-03-25T03:06:59.527Z,24.3
2019-03-25T03:10:05.496Z,24.3
2019-03-25T03:13:11.546Z,24.3
2019-03-25T03:16:17.432Z,24.3
2019-03-25T03:19:23.567Z,24.3
2019-03-25T03:22:29.462Z,24.3
2019-03-25T03:25:35.601Z,24.4
2019-03-25T03:28:57.427Z,24.2
2019-03-25T03:32:03.593Z,24.3
2019-03-25T03:35:09.755Z,24.3
2019-03-25T03:38:16.032Z,24.3
2019-03-25T03:41:22.009Z,24.2
2019-03-25T03:44:27.974Z,24.3
2019-03-25T03:47:33.870Z,24.2
2019-03-25T03:50:39.860Z,24.1
2019-03-25T03:53:45.777Z,24.2
2019-03-25T03:56:51.777Z,24.1
2019-03-25T03:59:57.644Z,24
2019-03-25T04:03:03.903Z,23.9
2019-03-25T04:06:09.959Z,23.8
2019-03-25T04:09:15.881Z,23.7
2019-03-25T04:12:21.880Z,23.8
2019-03-25T04:15:27.848Z,23.7
2019-03-25T04:18:34.003Z,23.6
2019-03-25T04:21:39.881Z,23.7
2019-03-25T04:24:45.819Z,23.7
2019-03-25T04:27:51.781Z,23.7
2019-03-25T04:30:57.741Z,23.7
2019-03-25T04:34:03.711Z,23.7
2019-03-25T04:37:09.661Z,23.8
2019-03-25T04:40:15.671Z,23.7
2019-03-25T04:43:21.792Z,23.5
2019-03-25T04:46:27.900Z,23.4
2019-03-25T04:49:33.818Z,23.2
2019-03-25T04:52:39.737Z,23.1
2019-03-25T04:55:45.730Z,23
2019-03-25T04:58:51.691Z,22.9
2019-03-25T05:01:57.753Z,22.8
2019-03-25T05:05:03.814Z,22.9
2019-03-25T05:08:09.683Z,22.8
2019-03-25T05:11:29.989Z,23.2
2019-03-25T05:14:36.539Z,23
2019-03-25T05:17:42.495Z,23.2
2019-03-25T05:20:48.454Z,23
2019-03-25T05:23:54.416Z,22.7
2019-03-25T05:27:00.372Z,22.6
2019-03-25T05:30:06.333Z,22.8
2019-03-25T05:33:12.207Z,23.2
2019-03-25T05:36:18.151Z,22.9
2019-03-25T05:39:24.109Z,23
2019-03-25T05:42:30.075Z,23.1
2019-03-25T05:45:36.151Z,23
2019-03-25T05:48:42.101Z,23
2019-03-25T05:51:48.066Z,23
2019-03-25T05:54:54.020Z,22.9
2019-03-25T05:57:59.925Z,22.9
2019-03-25T06:01:06.038Z,22.7
2019-03-25T06:04:11.997Z,23.1
2019-03-25T06:07:18.059Z,23.2
2019-03-25T06:10:26.556Z,23.1
2019-03-25T06:13:35.612Z,23
2019-03-25T06:16:41.444Z,22.9
2019-03-25T06:19:48.290Z,23.3
2019-03-25T06:22:55.210Z,23
2019-03-25T06:26:01.213Z,23.3
2019-03-25T06:29:07.156Z,23.3
2019-03-25T06:32:13.068Z,22.7
2019-03-25T06:35:19.087Z,22.7
2019-03-25T06:38:25.040Z,23
2019-03-25T06:41:31.104Z,22.9
2019-03-25T06:44:36.967Z,22.7
2019-03-25T06:47:43.122Z,23.2
2019-03-25T06:50:49.057Z,22.8
2019-03-25T06:53:57.905Z,22.7
2019-03-25T06:57:03.883Z,22.5
2019-03-25T07:00:10.026Z,22.3
2019-03-25T07:03:16.088Z,22.5
2019-03-25T07:06:24.767Z,22.4
2019-03-25T07:09:31.010Z,22.4
2019-03-25T07:12:37.890Z,22.6
2019-03-25T07:15:44.978Z,22.4
2019-03-25T07:18:51.112Z,22.5
2019-03-25T07:21:57.070Z,22.9
2019-03-25T07:25:05.803Z,23
2019-03-25T07:28:11.715Z,22.5
2019-03-25T07:31:17.831Z,23
2019-03-25T07:34:23.990Z,22.6
2019-03-25T07:37:30.067Z,22.8
2019-03-25T07:40:36.111Z,22.9
2019-03-25T07:43:42.069Z,23.1
2019-03-25T07:46:49.148Z,22.7
2019-03-25T07:49:55.125Z,23.2
2019-03-25T07:53:01.072Z,23
2019-03-25T07:56:07.157Z,22.9
2019-03-25T07:59:13.199Z,23.1
2019-03-25T08:02:23.892Z,22.6
2019-03-25T08:05:30.034Z,22.7
2019-03-25T08:08:36.089Z,22.6
2019-03-25T08:11:42.180Z,22.4
2019-03-25T08:14:48.225Z,22.7
2019-03-25T08:17:54.381Z,22.7
2019-03-25T08:21:00.344Z,22.7
2019-03-25T08:24:06.401Z,22.5
2019-03-25T08:27:12.363Z,22.4
2019-03-25T08:30:21.397Z,22.3
2019-03-25T08:33:27.455Z,22.2
2019-03-25T08:36:33.546Z,22.2
2019-03-25T08:39:39.486Z,22.1
2019-03-25T08:42:45.479Z,22
2019-03-25T08:45:52.528Z,21.8
2019-03-25T08:48:58.689Z,21.8
2019-03-25T08:52:04.647Z,21.9
2019-03-25T08:55:10.831Z,21.8
2019-03-25T08:58:16.890Z,21.8
2019-03-25T09:01:22.844Z,21.8
2019-03-25T09:04:28.816Z,21.9
2019-03-25T09:07:34.686Z,21.8
2019-03-25T09:10:40.726Z,21.8
2019-03-25T09:13:46.904Z,21.9
2019-03-25T09:16:52.950Z,21.8
2019-03-25T09:20:02.414Z,21.8
2019-03-25T09:23:10.921Z,22
2019-03-25T09:26:17.085Z,22
2019-03-25T09:29:23.061Z,22
2019-03-25T09:32:28.989Z,21.9
2019-03-25T09:35:34.950Z,21.9
2019-03-25T09:38:41.024Z,21.9
2019-03-25T09:41:46.976Z,22
2019-03-25T09:44:52.976Z,22.2
2019-03-25T09:47:58.994Z,22.1
2019-03-25T09:51:04.954Z,22.1
2019-03-25T09:54:10.927Z,22.1
2019-03-25T09:57:19.453Z,22
2019-03-25T10:00:25.498Z,22.1
2019-03-25T10:03:31.768Z,22
2019-03-25T10:06:37.644Z,22
2019-03-25T10:09:43.627Z,22
2019-03-25T10:12:49.643Z,22
2019-03-25T10:15:58.061Z,22.1
2019-03-25T10:19:04.123Z,22.1
2019-03-25T10:22:12.479Z,21.9
2019-03-25T10:25:18.589Z,22
2019-03-25T10:28:24.566Z,22.2
2019-03-25T10:31:30.456Z,22.2
2019-03-25T10:34:36.485Z,22.1
2019-03-25T10:37:42.452Z,22.1
2019-03-25T10:40:48.328Z,22.3
2019-03-25T10:43:54.263Z,22
2019-03-25T10:47:00.327Z,22.1
2019-03-25T10:50:07.619Z,22
2019-03-25T10:53:13.688Z,22.1
2019-03-25T10:56:19.652Z,22.1
2019-03-25T10:59:25.703Z,22.3
2019-03-25T11:02:34.128Z,22.2
2019-03-25T11:05:40.285Z,22.2
2019-03-25T11:08:46.244Z,22.3
2019-03-25T11:11:52.203Z,22.2
2019-03-25T11:14:58.162Z,22.2
2019-03-25T11:18:06.482Z,22.1
2019-03-25T11:21:12.372Z,22.1
2019-03-25T11:24:18.293Z,22.2
2019-03-25T11:27:24.257Z,22.4
2019-03-25T11:33:34.558Z,22.1
2019-03-25T11:36:40.709Z,22.2
2019-03-25T11:39:49.869Z,22.2
2019-03-25T11:42:56.007Z,22.2
2019-03-25T11:46:01.934Z,22.2
2019-03-25T11:49:07.943Z,22.3
2019-03-25T11:52:16.631Z,22.3
2019-03-25T11:55:22.609Z,22.5
2019-03-25T11:58:28.576Z,22.3
2019-03-25T12:01:35.716Z,22.3
2019-03-25T12:04:41.722Z,22.2
2019-03-25T12:07:47.700Z,22.3
2019-03-25T12:10:53.753Z,22.1
2019-03-25T12:13:59.629Z,22.1
2019-03-25T12:17:05.686Z,22.1
2019-03-25T12:20:11.739Z,22.1
2019-03-25T12:23:26.943Z,22.1
2019-03-25T12:26:32.976Z,22
2019-03-25T12:29:38.898Z,22.1
2019-03-25T12:32:45.827Z,22.1
2019-03-25T12:35:51.978Z,22
2019-03-25T12:38:57.859Z,22
2019-03-25T12:42:04.816Z,22
2019-03-25T12:45:10.899Z,22
2019-03-25T12:48:19.914Z,22
2019-03-25T12:51:26.103Z,21.9
2019-03-25T12:54:32.121Z,21.9
2019-03-25T12:57:38.117Z,22
2019-03-25T13:00:43.973Z,22
2019-03-25T13:03:49.914Z,22
2019-03-25T13:06:55.876Z,22
2019-03-25T13:10:01.838Z,21.9
2019-03-25T13:13:07.899Z,22
2019-03-25T13:16:13.855Z,21.9
2019-03-25T13:19:19.732Z,22
2019-03-25T13:22:26.726Z,21.9
2019-03-25T13:25:32.970Z,21.9
2019-03-25T13:28:41.274Z,21.9
2019-03-25T13:31:47.244Z,21.8
2019-03-25T13:34:53.306Z,21.8
2019-03-25T13:37:59.663Z,21.8
2019-03-25T13:41:05.747Z,21.8
2019-03-25T13:44:13.851Z,21.9
2019-03-25T13:47:19.727Z,21.8
2019-03-25T13:50:25.771Z,21.8
2019-03-25T13:53:31.657Z,21.8
2019-03-25T13:56:37.674Z,21.7
2019-03-25T13:59:43.877Z,21.7
2019-03-25T14:02:50.431Z,21.6
2019-03-25T14:05:56.493Z,21.7
2019-03-25T14:09:02.410Z,21.6
2019-03-25T14:12:08.928Z,21.6
2019-03-25T14:15:14.895Z,21.7
2019-03-25T14:18:20.944Z,21.6
2019-03-25T14:21:27.000Z,21.6
2019-03-25T14:24:32.968Z,21.8
2019-03-25T14:27:39.044Z,21.7
2019-03-25T14:30:45.092Z,21.7
2019-03-25T14:33:52.036Z,21.9
2019-03-25T14:36:59.055Z,21.6
2019-03-25T14:40:05.119Z,21.8
2019-03-25T14:43:12.206Z,21.9
2019-03-25T14:46:18.309Z,21.7
2019-03-25T14:49:25.764Z,21.7
2019-03-25T14:52:31.743Z,21.8
2019-03-25T14:55:40.874Z,21.7
2019-03-25T14:58:47.871Z,21.5
2019-03-25T15:01:54.236Z,22.1
2019-03-25T15:05:00.480Z,21.8
2019-03-25T15:08:06.750Z,21.6
2019-03-25T15:11:12.809Z,21.4
2019-03-25T15:14:18.894Z,21.6
2019-03-25T15:17:24.942Z,21.8
2019-03-25T15:20:31.017Z,21.8
2019-03-25T15:23:40.143Z,21.9
2019-03-25T15:26:47.231Z,21.8
2019-03-25T15:29:53.700Z,22
2019-03-25T15:32:59.872Z,21.6
2019-03-25T15:36:05.848Z,21.7
2019-03-25T15:39:12.821Z,21.6
2019-03-25T15:42:18.785Z,21.8
2019-03-25T15:45:24.825Z,21.5
2019-03-25T15:48:31.705Z,21.6
2019-03-25T15:51:37.774Z,21.4
2019-03-25T15:54:46.391Z,21.4
2019-03-25T15:57:52.564Z,21.1
2019-03-25T16:00:58.628Z,21.3
2019-03-25T16:04:04.593Z,21.2
2019-03-25T16:07:10.537Z,21
2019-03-25T16:10:16.606Z,21
2019-03-25T16:13:22.731Z,20.8
2019-03-25T16:16:29.742Z,20.9
2019-03-25T16:19:35.622Z,20.4
2019-03-25T16:22:41.665Z,20.8
2019-03-25T16:25:50.020Z,20.7
2019-03-25T16:28:56.034Z,20.5
2019-03-25T16:32:01.995Z,20.2
2019-03-25T16:35:07.964Z,20.2
2019-03-25T16:38:16.377Z,20.4
2019-03-25T16:41:22.342Z,20.1
2019-03-25T16:44:28.297Z,20.2
2019-03-25T16:47:34.253Z,20.2
2019-03-25T16:50:40.124Z,20
2019-03-25T16:53:46.175Z,20.1
2019-03-25T16:56:52.177Z,20
2019-03-25T16:59:58.199Z,20.2
2019-03-25T17:03:04.267Z,20
2019-03-25T17:06:10.243Z,20.1
2019-03-25T17:09:16.449Z,20
2019-03-25T17:12:22.543Z,19.7
2019-03-25T17:15:28.518Z,19.8
2019-03-25T17:18:34.477Z,19.7
2019-03-25T17:21:40.437Z,19.8
2019-03-25T17:24:46.385Z,19.7
2019-03-25T17:27:52.353Z,19.7
2019-03-25T17:30:58.214Z,19.7
2019-03-25T17:34:07.446Z,19.6
2019-03-25T17:37:13.508Z,19.8
2019-03-25T17:40:22.044Z,19.7
2019-03-25T17:43:28.881Z,19.8
2019-03-25T17:46:34.861Z,19.9
2019-03-25T17:49:40.800Z,19.8
2019-03-25T17:52:46.683Z,19.8
2019-03-25T17:55:52.639Z,19.9
2019-03-25T17:58:58.523Z,19.9
2019-03-25T18:02:04.558Z,19.9
2019-03-25T18:05:10.626Z,20
2019-03-25T18:08:16.493Z,20
2019-03-25T18:11:23.565Z,20
2019-03-25T18:14:29.533Z,19.9
2019-03-25T18:17:35.589Z,20
2019-03-25T18:20:41.461Z,20
2019-03-25T18:23:47.412Z,20
2019-03-25T18:26:53.371Z,20
2019-03-25T18:29:59.535Z,20
2019-03-25T18:33:05.798Z,20
2019-03-25T18:36:11.735Z,20
2019-03-25T18:39:17.616Z,20
2019-03-25T18:42:23.671Z,20
2019-03-25T18:45:29.577Z,20
2019-03-25T18:48:35.501Z,20
2019-03-25T18:51:41.556Z,20.1
2019-03-25T18:54:47.635Z,20
2019-03-25T18:57:53.600Z,20
2019-03-25T19:00:59.643Z,20.1
2019-03-25T19:04:05.601Z,20.2
2019-03-25T19:07:11.662Z,20.1
2019-03-25T19:10:17.630Z,20.1
2019-03-25T19:13:23.615Z,20.1
2019-03-25T19:16:29.674Z,20.2
2019-03-25T19:19:35.816Z,20
2019-03-25T19:22:41.693Z,20.1
2019-03-25T19:25:47.734Z,20.2
2019-03-25T19:28:53.920Z,20.2
2019-03-25T19:32:07.461Z,20.3
2019-03-25T19:35:13.495Z,20.2
2019-03-25T19:38:19.393Z,20.2
2019-03-25T19:41:33.100Z,20.3
2019-03-25T19:44:41.821Z,20.3
2019-03-25T19:47:47.892Z,20.4
2019-03-25T19:50:53.949Z,20.4
2019-03-25T19:54:00.012Z,20.4
2019-03-25T19:57:06.077Z,20.5
2019-03-25T20:00:12.159Z,20.6
2019-03-25T20:03:18.399Z,20.7
2019-03-25T20:06:27.436Z,20.7
2019-03-25T20:09:33.497Z,20.7
2019-03-25T20:12:39.773Z,20.8
2019-03-25T20:15:47.459Z,20.9
2019-03-25T20:18:53.546Z,21
2019-03-25T20:21:59.590Z,21.1
2019-03-25T20:25:05.863Z,21.1
2019-03-25T20:28:12.022Z,21.4
2019-03-25T20:31:17.955Z,21.3
2019-03-25T20:34:24.048Z,21.4
2019-03-25T20:37:30.232Z,21.5
2019-03-25T20:40:36.310Z,21.6
2019-03-25T20:43:42.331Z,21.7
2019-03-25T20:46:48.498Z,21.7
2019-03-25T20:49:54.768Z,21.8
2019-03-25T20:53:00.853Z,21.8
2019-03-25T20:56:07.192Z,22
2019-03-25T20:59:13.295Z,22
2019-03-25T21:02:19.322Z,22
2019-03-25T21:05:25.338Z,22.1
2019-03-25T21:08:31.551Z,22.1
2019-03-25T21:14:41.864Z,22.2
2019-03-25T21:17:51.176Z,22.2
2019-03-25T21:20:57.506Z,22.3
2019-03-25T21:24:03.724Z,22.4
2019-03-25T21:27:09.980Z,22.4
2019-03-25T21:30:16.032Z,22.4
2019-03-25T21:33:22.261Z,22.5
2019-03-25T21:36:28.255Z,22.6
2019-03-25T21:39:34.529Z,22.6
2019-03-25T21:42:40.746Z,22.6
2019-03-25T21:45:46.899Z,22.7
2019-03-25T21:48:53.160Z,22.7
2019-03-25T21:51:59.394Z,22.8
2019-03-25T21:55:05.796Z,22.7
2019-03-25T21:58:12.063Z,22.8
2019-03-25T22:01:18.327Z,22.8
2019-03-25T22:04:24.473Z,22.9
2019-03-25T22:07:30.526Z,22.9
2019-03-25T22:10:36.491Z,23
2019-03-25T22:13:45.314Z,23.2
2019-03-25T22:16:51.274Z,23.3
2019-03-25T22:19:57.243Z,23.3
2019-03-25T22:23:03.289Z,23.3
2019-03-25T22:26:09.250Z,23.4
2019-03-25T22:29:15.136Z,23.5
2019-03-25T22:32:21.168Z,23.6
2019-03-25T22:35:27.138Z,23.6
2019-03-25T22:38:33.090Z,23.7
2019-03-25T22:41:38.968Z,23.7
2019-03-25T22:44:45.010Z,23.7
2019-03-25T22:47:50.971Z,23.8
2019-03-25T22:50:56.931Z,23.8
2019-03-25T22:54:05.962Z,23.9
2019-03-25T22:57:11.846Z,23.8
2019-03-25T23:00:17.778Z,23.9
2019-03-25T23:03:23.668Z,24
2019-03-25T23:06:44.034Z,24
2019-03-25T23:09:49.995Z,24
2019-03-25T23:12:55.954Z,24.1
2019-03-25T23:16:01.830Z,24.1
2019-03-25T23:19:07.789Z,24.1
2019-03-25T23:22:13.662Z,24.2
2019-03-25T23:25:19.696Z,24.2
2019-03-25T23:28:25.675Z,24.3
2019-03-25T23:31:31.626Z,24.3
2019-03-25T23:34:37.571Z,24.2
2019-03-25T23:37:43.544Z,24.3
2019-03-25T23:40:49.415Z,24.4
2019-03-25T23:43:55.363Z,24.4
2019-03-25T23:47:01.291Z,24.4
2019-03-25T23:50:07.385Z,24.4
2019-03-25T23:53:13.547Z,24.5
2019-03-25T23:56:19.579Z,24.5
2019-03-25T23:59:28.853Z,24.5
